createdAt,value
2022-08-12T00:02:04.248Z,102025.59
2022-08-12T00:04:52.082Z,102017.97
2022-08-12T00:07:37.774Z,102019.22
2022-08-12T00:10:23.627Z,102022.47
2022-08-12T00:13:08.974Z,102013.22
2022-08-12T00:15:55.321Z,102026.59
2022-08-12T00:18:40.161Z,102024.13
2022-08-12T00:21:26.689Z,102023.47
2022-08-12T00:24:12.984Z,102021.81
2022-08-12T00:26:59.855Z,102019.72
2022-08-12T00:29:48.025Z,102017.25
2022-08-12T00:32:36.172Z,102020.13
2022-08-12T00:35:36.503Z,102020.53
2022-08-12T00:38:23.161Z,102013.50
2022-08-12T00:41:08.289Z,102017.22
2022-08-12T00:43:36.586Z,102018.06
2022-08-12T00:46:22.506Z,102023.00
2022-08-12T00:48:50.187Z,102019.91
2022-08-12T00:51:17.414Z,102021.34
2022-08-12T00:53:44.461Z,102017.19
2022-08-12T00:56:11.126Z,102026.06
2022-08-12T00:58:44.879Z,102020.91
2022-08-12T01:01:11.643Z,102013.25
2022-08-12T01:03:59.614Z,102016.13
2022-08-12T01:06:51.148Z,102019.84
2022-08-12T01:09:41.042Z,102023.53
2022-08-12T01:12:10.858Z,102018.38
2022-08-12T01:14:38.856Z,102020.63
2022-08-12T01:17:06.118Z,102016.31
2022-08-12T01:19:33.690Z,102016.31
2022-08-12T01:22:18.713Z,102022.88
2022-08-12T01:24:57.315Z,102023.25
2022-08-12T01:27:25.889Z,102019.97
2022-08-12T01:29:54.036Z,102022.84
2022-08-12T01:32:23.892Z,102019.75
2022-08-12T01:35:03.273Z,102021.13
2022-08-12T01:37:31.093Z,102013.53
2022-08-12T01:40:36.148Z,102018.66
2022-08-12T01:42:50.399Z,102016.00
2022-08-12T01:45:24.687Z,102015.34
2022-08-12T01:48:03.929Z,102016.19
2022-08-12T01:50:36.829Z,102007.09
2022-08-12T01:53:10.531Z,102000.31
2022-08-12T01:55:41.310Z,102003.56
2022-08-12T01:58:18.144Z,102004.38
2022-08-12T02:01:01.319Z,102000.28
2022-08-12T02:03:52.817Z,101994.31
2022-08-12T02:07:04.185Z,101993.66
2022-08-12T02:10:50.591Z,101993.03
2022-08-12T02:13:43.632Z,101997.31
2022-08-12T02:16:36.434Z,101981.25
2022-08-12T02:20:02.893Z,101990.28
2022-08-12T02:22:31.414Z,101990.88
2022-08-12T02:25:32.125Z,101988.78
2022-08-12T02:28:00.494Z,101976.81
2022-08-12T02:30:41.807Z,101980.72
2022-08-12T02:33:10.650Z,101976.38
2022-08-12T02:35:39.692Z,101972.06
2022-08-12T02:38:09.658Z,101973.06
2022-08-12T02:40:43.138Z,101971.25
2022-08-12T02:43:34.746Z,101971.59
2022-08-12T02:46:04.381Z,101963.78
2022-08-12T02:48:37.636Z,101971.34
2022-08-12T02:51:06.656Z,101974.41
2022-08-12T02:53:36.285Z,101965.31
2022-08-12T02:56:04.090Z,101968.00
2022-08-12T02:58:33.210Z,101965.97
2022-08-12T03:01:04.097Z,101970.91
2022-08-12T03:03:32.824Z,101968.44
2022-08-12T03:06:03.401Z,101966.34
2022-08-12T03:08:34.980Z,101967.34
2022-08-12T03:11:12.156Z,101965.28
2022-08-12T03:13:46.234Z,101955.19
2022-08-12T03:16:14.573Z,101959.88
2022-08-12T03:18:46.179Z,101952.72
2022-08-12T03:21:17.228Z,101963.75
2022-08-12T03:24:06.065Z,101963.31
2022-08-12T03:26:36.109Z,101964.34
2022-08-12T03:29:06.745Z,101970.31
2022-08-12T03:31:34.217Z,101961.84
2022-08-12T03:34:09.971Z,101960.22
2022-08-12T03:36:38.926Z,101961.41
2022-08-12T03:39:17.225Z,101960.13
2022-08-12T03:41:58.001Z,101963.81
2022-08-12T03:45:05.454Z,101965.03
2022-08-12T03:48:02.333Z,101961.94
2022-08-12T03:50:49.117Z,101969.69
2022-08-12T03:53:40.825Z,101965.91
2022-08-12T03:56:25.990Z,101964.03
2022-08-12T03:59:13.729Z,101966.03
2022-08-12T04:01:41.330Z,101963.38
2022-08-12T04:04:11.030Z,101960.91
2022-08-12T04:06:44.905Z,101969.72
2022-08-12T04:09:16.420Z,101965.97
2022-08-12T04:12:03.553Z,101976.47
2022-08-12T04:14:30.603Z,101963.50
2022-08-12T04:16:57.437Z,101964.69
2022-08-12T04:19:26.255Z,101972.50
2022-08-12T04:22:02.180Z,101967.38
2022-08-12T04:24:31.934Z,101968.78
2022-08-12T04:26:58.641Z,101961.75
2022-08-12T04:30:31.590Z,101961.97
2022-08-12T04:32:13.870Z,101961.13
2022-08-12T04:34:43.711Z,101963.19
2022-08-12T04:37:12.138Z,101965.00
2022-08-12T04:39:40.142Z,101968.84
2022-08-12T04:42:06.973Z,101977.88
2022-08-12T04:44:33.628Z,101968.84
2022-08-12T04:47:00.251Z,101970.97
2022-08-12T04:49:27.879Z,101974.09
2022-08-12T04:51:59.126Z,101977.19
2022-08-12T04:54:27.459Z,101974.38
2022-08-12T04:57:03.655Z,101976.47
2022-08-12T04:59:48.204Z,101974.44
2022-08-12T05:02:20.613Z,101974.06
2022-08-12T05:04:55.767Z,101970.16
2022-08-12T05:07:24.284Z,101973.72
2022-08-12T05:10:01.932Z,101968.66
2022-08-12T05:12:39.700Z,101959.88
2022-08-12T05:15:19.178Z,101964.47
2022-08-12T05:17:55.622Z,101961.66
2022-08-12T05:20:22.489Z,101967.06
2022-08-12T05:22:50.081Z,101968.38
2022-08-12T05:25:23.610Z,101967.22
2022-08-12T05:27:55.531Z,101969.41
2022-08-12T05:30:25.516Z,101969.69
2022-08-12T05:32:53.721Z,101968.69
2022-08-12T05:35:21.644Z,101966.31
2022-08-12T05:37:49.755Z,101971.72
2022-08-12T05:40:16.336Z,101969.75
2022-08-12T05:42:43.072Z,101969.44
2022-08-12T05:45:10.447Z,101974.84
2022-08-12T05:47:53.629Z,101977.75
2022-08-12T05:50:21.250Z,101976.00
2022-08-12T05:52:48.576Z,101984.91
2022-08-12T05:55:15.321Z,101982.69
2022-08-12T05:57:41.856Z,101983.50
2022-08-12T06:00:08.956Z,101981.44
2022-08-12T06:02:35.687Z,101983.50
2022-08-12T06:05:02.707Z,101985.38
2022-08-12T06:08:00.868Z,101987.41
2022-08-12T06:10:32.610Z,101983.25
2022-08-12T06:13:04.886Z,101990.00
2022-08-12T06:15:33.142Z,101990.34
2022-08-12T06:18:13.572Z,101988.59
2022-08-12T06:20:43.397Z,101985.63
2022-08-12T06:23:10.896Z,101988.78
2022-08-12T06:25:37.748Z,101983.91
2022-08-12T06:28:15.633Z,101989.16
2022-08-12T06:30:42.394Z,101988.81
2022-08-12T06:33:21.905Z,101994.06
2022-08-12T06:35:51.870Z,102005.59
2022-08-12T06:38:25.264Z,101986.44
2022-08-12T06:41:15.337Z,101988.75
2022-08-12T06:44:05.478Z,101980.22
2022-08-12T06:46:32.647Z,101989.69
2022-08-12T06:48:59.681Z,101988.13
2022-08-12T06:51:28.880Z,101984.97
2022-08-12T06:53:56.254Z,101983.94
2022-08-12T06:56:39.824Z,101987.47
2022-08-12T06:59:06.823Z,101986.22
2022-08-12T07:01:33.374Z,101986.63
2022-08-12T07:04:14.286Z,101986.53
2022-08-12T07:06:46.613Z,101990.69
2022-08-12T07:09:55.669Z,101983.47
2022-08-12T07:12:01.643Z,101978.66
2022-08-12T07:14:28.155Z,101984.13
2022-08-12T07:16:56.769Z,101979.34
2022-08-12T07:19:23.460Z,101985.41
2022-08-12T07:21:57.977Z,101970.81
2022-08-12T07:24:29.047Z,101973.81
2022-08-12T07:26:55.816Z,101989.25
2022-08-12T07:29:23.004Z,101980.22
2022-08-12T07:31:49.601Z,101985.41
2022-08-12T07:34:17.209Z,101979.53
2022-08-12T07:36:45.764Z,101981.53
2022-08-12T07:39:13.502Z,101981.97
2022-08-12T07:41:40.195Z,101983.66
2022-08-12T07:44:08.944Z,101979.88
2022-08-12T07:46:41.580Z,101975.59
2022-08-12T07:49:15.959Z,101976.38
2022-08-12T07:51:44.068Z,101976.59
2022-08-12T07:54:12.987Z,101975.41
2022-08-12T07:56:41.784Z,101971.69
2022-08-12T07:59:09.349Z,101968.81
2022-08-12T08:01:38.086Z,101970.53
2022-08-12T08:04:24.610Z,101971.78
2022-08-12T08:06:51.508Z,101973.50
2022-08-12T08:09:21.365Z,101976.06
2022-08-12T08:12:06.935Z,101980.13
2022-08-12T08:14:33.703Z,101983.41
2022-08-12T08:17:03.423Z,101980.41
2022-08-12T08:19:32.091Z,101973.56
2022-08-12T08:21:59.124Z,101969.69
2022-08-12T08:24:28.163Z,101973.44
2022-08-12T08:26:56.885Z,101969.53
2022-08-12T08:29:24.407Z,101970.22
2022-08-12T08:31:54.756Z,101969.28
2022-08-12T08:34:33.468Z,101971.31
2022-08-12T08:37:10.713Z,101971.13
2022-08-12T08:39:42.111Z,101966.69
2022-08-12T08:42:27.253Z,101967.81
2022-08-12T08:44:58.871Z,101954.34
2022-08-12T08:47:25.689Z,101968.78
2022-08-12T08:49:52.411Z,101959.78
2022-08-12T08:52:39.238Z,101957.25
2022-08-12T08:55:07.315Z,101964.22
2022-08-12T08:57:43.157Z,101955.47
2022-08-12T09:00:19.627Z,101962.59
2022-08-12T09:02:49.515Z,101961.31
2022-08-12T09:08:19.262Z,101965.53
2022-08-12T09:10:49.595Z,101965.66
2022-08-12T09:14:10.654Z,101962.56
2022-08-12T09:16:24.208Z,101958.03
2022-08-12T09:18:53.249Z,101958.63
2022-08-12T09:21:23.261Z,101950.63
2022-08-12T09:23:59.275Z,101949.91
2022-08-12T09:26:33.925Z,101951.53
2022-08-12T09:29:20.341Z,101947.66
2022-08-12T09:32:09.562Z,101945.38
2022-08-12T09:34:41.965Z,101945.59
2022-08-12T09:37:20.206Z,101935.88
2022-08-12T09:40:01.955Z,101941.81
2022-08-12T09:46:07.041Z,101925.28
2022-08-12T09:48:35.227Z,101941.22
2022-08-12T09:51:05.039Z,101939.75
2022-08-12T09:53:45.723Z,101933.47
2022-08-12T09:57:02.861Z,101920.13
2022-08-12T10:00:13.900Z,101923.81
2022-08-12T10:02:44.235Z,101918.56
2022-08-12T10:04:56.391Z,101921.97
2022-08-12T10:07:24.902Z,101922.78
2022-08-12T10:09:58.409Z,101919.38
2022-08-12T10:13:06.955Z,101924.56
2022-08-12T10:16:02.896Z,101921.03
2022-08-12T10:18:19.573Z,101917.16
2022-08-12T10:20:46.116Z,101914.88
2022-08-12T10:23:12.897Z,101905.34
2022-08-12T10:26:34.566Z,101913.72
2022-08-12T10:29:03.504Z,101904.81
2022-08-12T10:32:21.183Z,101899.63
2022-08-12T10:34:38.094Z,101898.50
2022-08-12T10:37:22.657Z,101891.09
2022-08-12T10:40:06.846Z,101891.50
2022-08-12T10:43:00.586Z,101897.13
2022-08-12T10:45:27.474Z,101893.88
2022-08-12T10:48:07.100Z,101880.59
2022-08-12T10:50:58.615Z,101884.13
2022-08-12T10:53:43.909Z,101879.78
2022-08-12T10:56:14.094Z,101876.19
2022-08-12T10:58:40.849Z,101869.38
2022-08-12T11:01:50.182Z,101872.00
2022-08-12T11:04:24.693Z,101865.59
2022-08-12T11:07:06.646Z,101872.41
2022-08-12T11:09:55.727Z,101862.31
2022-08-12T11:12:55.656Z,101862.22
2022-08-12T11:15:21.197Z,101853.22
2022-08-12T11:17:59.615Z,101854.88
2022-08-12T11:20:31.113Z,101843.44
2022-08-12T11:23:25.230Z,101848.28
2022-08-12T11:25:58.123Z,101843.44
2022-08-12T11:28:33.460Z,101841.97
2022-08-12T11:31:06.546Z,101841.81
2022-08-12T11:34:06.516Z,101835.66
2022-08-12T11:36:22.176Z,101833.91
2022-08-12T11:38:50.945Z,101830.59
2022-08-12T11:41:28.168Z,101823.81
2022-08-12T11:44:36.846Z,101825.38
2022-08-12T11:46:53.069Z,101814.75
2022-08-12T11:49:32.027Z,101817.75
2022-08-12T11:52:02.292Z,101817.88
2022-08-12T11:54:30.271Z,101820.38
2022-08-12T11:57:02.225Z,101820.69
2022-08-12T12:02:20.499Z,101807.84
2022-08-12T12:04:52.878Z,101803.25
2022-08-12T12:07:22.697Z,101805.50
2022-08-12T12:10:00.398Z,101799.78
2022-08-12T12:12:26.941Z,101802.97
2022-08-12T12:14:54.570Z,101803.25
2022-08-12T12:17:22.521Z,101796.41
2022-08-12T12:19:49.169Z,101780.56
2022-08-12T12:22:23.392Z,101775.75
2022-08-12T12:24:57.332Z,101787.75
2022-08-12T12:28:03.860Z,101788.53
2022-08-12T12:30:18.574Z,101778.94
2022-08-12T12:32:56.282Z,101778.22
2022-08-12T12:36:06.599Z,101764.94
2022-08-12T12:38:12.455Z,101768.16
2022-08-12T12:40:44.067Z,101772.34
2022-08-12T12:43:12.458Z,101769.63
2022-08-12T12:45:44.307Z,101769.28
2022-08-12T12:48:17.947Z,101773.22
2022-08-12T12:51:10.957Z,101756.81
2022-08-12T12:54:08.096Z,101765.28
2022-08-12T12:56:40.544Z,101750.56
2022-08-12T12:59:56.186Z,101747.03
2022-08-12T13:01:55.232Z,101747.50
2022-08-12T13:04:22.523Z,101746.09
2022-08-12T13:06:52.830Z,101748.41
2022-08-12T13:09:22.260Z,101753.72
2022-08-12T13:11:53.280Z,101755.34
2022-08-12T13:14:29.571Z,101749.13
2022-08-12T13:17:02.619Z,101748.53
2022-08-12T13:19:38.919Z,101743.69
2022-08-12T13:22:19.031Z,101742.94
2022-08-12T13:24:55.528Z,101737.03
2022-08-12T13:27:35.546Z,101734.19
2022-08-12T13:30:06.476Z,101736.75
2022-08-12T13:32:34.103Z,101732.28
2022-08-12T13:35:03.937Z,101729.53
2022-08-12T13:37:55.282Z,101731.63
2022-08-12T13:40:27.245Z,101733.44
2022-08-12T13:42:57.899Z,101729.34
2022-08-12T13:45:31.080Z,101733.00
2022-08-12T13:47:58.256Z,101736.00
2022-08-12T13:50:36.547Z,101720.47
2022-08-12T13:53:24.353Z,101731.53
2022-08-12T13:55:59.814Z,101723.81
2022-08-12T13:58:30.348Z,101720.13
2022-08-12T14:00:58.256Z,101713.78
2022-08-12T14:03:28.399Z,101722.34
2022-08-12T14:06:15.640Z,101709.19
2022-08-12T14:08:43.339Z,101713.13
2022-08-12T14:11:13.232Z,101704.09
2022-08-12T14:14:03.883Z,101708.00
2022-08-12T14:16:37.781Z,101698.94
2022-08-12T14:19:24.157Z,101699.25
2022-08-12T14:21:59.864Z,101690.50
2022-08-12T14:24:35.362Z,101691.00
2022-08-12T14:27:03.834Z,101687.19
2022-08-12T14:29:56.220Z,101691.91
2022-08-12T14:32:23.714Z,101689.91
2022-08-12T14:34:51.416Z,101694.81
2022-08-12T14:37:57.245Z,101693.53
2022-08-12T14:40:06.131Z,101680.88
2022-08-12T14:42:32.801Z,101681.69
2022-08-12T14:45:01.394Z,101672.50
2022-08-12T14:47:35.303Z,101674.75
2022-08-12T14:50:37.589Z,101675.72
2022-08-12T14:58:28.273Z,101668.94
2022-08-12T15:01:21.203Z,101667.00
2022-08-12T15:03:56.955Z,101671.06
2022-08-12T15:06:43.738Z,101661.47
2022-08-12T15:09:14.143Z,101664.72
2022-08-12T15:11:55.802Z,101657.09
2022-08-12T15:14:30.624Z,101656.47
2022-08-12T15:17:00.101Z,101650.31
2022-08-12T15:20:11.476Z,101645.78
2022-08-12T15:22:37.407Z,101648.38
2022-08-12T15:25:07.885Z,101644.06
2022-08-12T15:28:05.424Z,101636.00
2022-08-12T15:30:30.319Z,101640.03
2022-08-12T15:32:57.272Z,101642.75
2022-08-12T15:35:27.474Z,101642.09
2022-08-12T15:38:10.118Z,101633.34
2022-08-12T15:40:46.746Z,101640.41
2022-08-12T15:44:15.621Z,101624.28
2022-08-12T15:46:03.381Z,101629.25
2022-08-12T15:48:32.779Z,101633.47
2022-08-12T15:51:00.606Z,101628.09
2022-08-12T15:53:46.257Z,101624.16
2022-08-12T15:56:29.536Z,101630.50
2022-08-12T15:58:59.051Z,101630.19
2022-08-12T16:01:35.054Z,101629.41
2022-08-12T16:04:02.640Z,101626.31
2022-08-12T16:07:00.625Z,101615.78
2022-08-12T16:09:21.534Z,101615.28
2022-08-12T16:11:59.240Z,101622.31
2022-08-12T16:14:28.277Z,101623.22
2022-08-12T16:16:55.487Z,101619.50
2022-08-12T16:20:02.409Z,101624.00
2022-08-12T16:22:11.290Z,101620.72
2022-08-12T16:24:42.398Z,101617.59
2022-08-12T16:27:10.012Z,101617.00
2022-08-12T16:29:52.440Z,101616.81
2022-08-12T16:32:24.582Z,101609.31
2022-08-12T16:34:59.067Z,101620.94
2022-08-12T16:38:24.555Z,101609.41
2022-08-12T16:40:14.135Z,101617.72
2022-08-12T16:42:54.229Z,101609.13
2022-08-12T16:45:32.167Z,101621.41
2022-08-12T16:48:34.210Z,101607.00
2022-08-12T16:51:05.934Z,101610.63
2022-08-12T16:53:44.523Z,101612.78
2022-08-12T16:56:15.244Z,101609.53
2022-08-12T16:58:43.468Z,101606.91
2022-08-12T17:01:14.515Z,101618.25
2022-08-12T17:03:52.047Z,101605.00
2022-08-12T17:06:22.620Z,101606.91
2022-08-12T17:09:02.744Z,101615.41
2022-08-12T17:11:33.123Z,101613.34
2022-08-12T17:14:00.170Z,101610.41
2022-08-12T17:16:30.060Z,101609.38
2022-08-12T17:18:59.547Z,101611.19
2022-08-12T17:21:41.069Z,101601.44
2022-08-12T17:24:22.387Z,101607.31
2022-08-12T17:26:57.685Z,101604.34
2022-08-12T17:30:01.329Z,101601.09
2022-08-12T17:32:14.423Z,101593.84
2022-08-12T17:35:00.326Z,101599.41
2022-08-12T17:37:27.808Z,101600.50
2022-08-12T17:40:15.395Z,101594.97
2022-08-12T17:42:47.401Z,101594.03
2022-08-12T17:45:19.509Z,101586.72
2022-08-12T17:48:01.958Z,101596.91
2022-08-12T17:50:34.985Z,101593.50
2022-08-12T17:53:02.758Z,101596.06
2022-08-12T17:55:43.152Z,101594.88
2022-08-12T17:58:14.381Z,101600.19
2022-08-12T18:00:44.221Z,101596.75
2022-08-12T18:03:57.480Z,101599.59
2022-08-12T18:06:08.470Z,101601.63
2022-08-12T18:08:54.615Z,101601.94
2022-08-12T18:11:55.135Z,101605.56
2022-08-12T18:14:29.218Z,101605.16
2022-08-12T18:17:00.476Z,101611.84
2022-08-12T18:19:48.618Z,101610.94
2022-08-12T18:22:17.708Z,101614.22
2022-08-12T18:24:52.331Z,101607.03
2022-08-12T18:27:44.685Z,101603.69
2022-08-12T18:30:20.845Z,101613.84
2022-08-12T18:33:04.553Z,101611.13
2022-08-12T18:35:46.450Z,101612.03
2022-08-12T18:38:16.920Z,101615.66
2022-08-12T18:41:04.388Z,101615.50
2022-08-12T18:43:37.126Z,101615.03
2022-08-12T18:46:29.229Z,101613.19
2022-08-12T18:49:17.728Z,101604.78
2022-08-12T18:51:55.314Z,101612.38
2022-08-12T18:54:41.495Z,101613.75
2022-08-12T18:57:19.905Z,101620.78
2022-08-12T19:00:07.660Z,101613.41
2022-08-12T19:02:40.326Z,101612.00
2022-08-12T19:05:10.730Z,101621.69
2022-08-12T19:07:50.181Z,101612.16
2022-08-12T19:10:27.678Z,101617.69
2022-08-12T19:13:24.161Z,101625.41
2022-08-12T19:15:57.627Z,101619.28
2022-08-12T19:18:29.755Z,101629.69
2022-08-12T19:20:58.593Z,101628.19
2022-08-12T19:23:35.039Z,101623.69
2022-08-12T19:26:10.539Z,101634.94
2022-08-12T19:28:39.413Z,101635.56
2022-08-12T19:31:44.991Z,101630.56
2022-08-12T19:37:26.699Z,101638.06
2022-08-12T19:40:09.443Z,101640.63
2022-08-12T19:42:53.626Z,101643.72
2022-08-12T19:45:24.186Z,101641.59
2022-08-12T19:48:17.505Z,101645.19
2022-08-12T19:50:49.962Z,101647.75
2022-08-12T19:53:19.681Z,101644.56
2022-08-12T19:55:50.794Z,101649.00
2022-08-12T19:58:19.601Z,101653.06
2022-08-12T20:00:52.592Z,101652.06
2022-08-12T20:03:37.912Z,101659.41
2022-08-12T20:06:14.129Z,101660.75
2022-08-12T20:08:48.017Z,101657.63
2022-08-12T20:12:13.087Z,101661.53
2022-08-12T20:14:08.069Z,101662.34
2022-08-12T20:16:57.384Z,101666.09
2022-08-12T20:19:52.531Z,101669.91
2022-08-12T20:22:14.236Z,101669.69
2022-08-12T20:24:42.441Z,101659.19
2022-08-12T20:28:04.140Z,101663.53
2022-08-12T20:30:37.511Z,101667.41
2022-08-12T20:33:18.433Z,101658.53
2022-08-12T20:36:12.979Z,101667.78
2022-08-12T20:38:37.477Z,101671.91
2022-08-12T20:41:17.400Z,101670.00
2022-08-12T20:43:47.432Z,101668.38
2022-08-12T20:46:14.166Z,101664.97
2022-08-12T20:48:44.139Z,101669.59
2022-08-12T20:51:18.937Z,101658.59
2022-08-12T20:53:58.124Z,101662.69
2022-08-12T20:56:37.194Z,101661.84
2022-08-12T20:59:10.378Z,101668.97
2022-08-12T21:01:47.367Z,101662.06
2022-08-12T21:04:35.481Z,101667.75
2022-08-12T21:07:04.559Z,101663.75
2022-08-12T21:09:42.493Z,101668.84
2022-08-12T21:12:31.167Z,101672.22
2022-08-12T21:15:23.235Z,101676.22
2022-08-12T21:18:11.358Z,101671.41
2022-08-12T21:20:52.541Z,101674.78
2022-08-12T21:23:21.446Z,101674.03
2022-08-12T21:25:49.027Z,101675.53
2022-08-12T21:28:21.055Z,101672.69
2022-08-12T21:31:11.025Z,101672.34
2022-08-12T21:33:58.576Z,101675.69
2022-08-12T21:36:34.123Z,101674.72
2022-08-12T21:39:35.576Z,101672.47
2022-08-12T21:42:06.575Z,101683.06
2022-08-12T21:45:44.099Z,101680.44
2022-08-12T21:47:23.560Z,101684.84
2022-08-12T21:50:03.270Z,101677.91
2022-08-12T21:52:34.918Z,101682.09
2022-08-12T21:55:08.514Z,101679.25
2022-08-12T21:57:51.408Z,101679.88
2022-08-12T22:00:21.718Z,101685.28
2022-08-12T22:03:11.036Z,101680.81
2022-08-12T22:05:55.901Z,101680.03
2022-08-12T22:08:25.673Z,101672.88
2022-08-12T22:10:56.351Z,101676.00
2022-08-12T22:14:02.413Z,101682.22
2022-08-12T22:16:13.881Z,101677.97
2022-08-12T22:18:43.019Z,101675.75
2022-08-12T22:21:22.102Z,101675.94
2022-08-12T22:23:51.962Z,101676.59
2022-08-12T22:26:37.446Z,101677.25
2022-08-12T22:29:23.299Z,101678.50
2022-08-12T22:31:49.883Z,101682.66
2022-08-12T22:34:18.390Z,101668.66
2022-08-12T22:36:45.757Z,101675.84
2022-08-12T22:39:16.021Z,101675.47
2022-08-12T22:42:02.105Z,101680.59
2022-08-12T22:44:52.706Z,101677.78
2022-08-12T22:47:54.284Z,101681.94
2022-08-12T22:50:27.377Z,101670.25
2022-08-12T22:53:14.542Z,101674.81
2022-08-12T22:56:00.259Z,101675.03
2022-08-12T22:58:31.983Z,101671.97
2022-08-12T23:01:02.227Z,101671.78
2022-08-12T23:03:49.661Z,101668.34
2022-08-12T23:06:23.156Z,101671.22
2022-08-12T23:08:51.156Z,101669.00
2022-08-12T23:11:23.528Z,101667.78
2022-08-12T23:13:55.178Z,101670.28
2022-08-12T23:16:31.729Z,101662.47
2022-08-12T23:19:17.819Z,101663.47
2022-08-12T23:22:06.044Z,101661.84
2022-08-12T23:24:55.541Z,101661.88
2022-08-12T23:27:44.390Z,101666.00
2022-08-12T23:30:24.657Z,101660.44
2022-08-12T23:32:54.842Z,101662.09
2022-08-12T23:35:28.454Z,101660.28
2022-08-12T23:38:30.509Z,101665.44
2022-08-12T23:41:00.873Z,101661.53
2022-08-12T23:43:39.548Z,101658.88
2022-08-12T23:46:08.828Z,101661.56
2022-08-12T23:48:37.565Z,101666.50
2022-08-12T23:51:21.696Z,101666.09
2022-08-12T23:53:54.956Z,101660.53
2022-08-12T23:56:22.643Z,101657.03
2022-08-12T23:58:52.616Z,101664.44
